Time;durP1;ratioP1;P1;durP2;ratioP2;P2;SDS_P1;SDS_P2;PMS_P1;PMS_P2;Temp;Humidity;BMP_temperature;BMP_pressure;BME280_temperature;BME280_humidity;BME280_pressure;Samples;Min_cycle;Max_cycle;Signal;HPM_P1;HPM_P2
2023/05/24 00:02:26;;;;;;;18.30;13.40;;;;;;;15.57;72.75;96836.23;108872;1250;101437;-74
2023/05/24 00:04:55;;;;;;;18.50;13.30;;;;;;;15.56;72.81;96836.44;108729;1251;99768;-74
2023/05/24 00:07:23;;;;;;;17.20;12.90;;;;;;;15.56;72.76;96840.29;108785;1250;95641;-74
2023/05/24 00:09:51;;;;;;;18.30;12.60;;;;;;;15.58;72.83;96840.14;108859;1250;96028;-76
2023/05/24 00:12:19;;;;;;;16.30;13.00;;;;;;;15.59;72.86;96840.80;108902;1250;103858;-74
2023/05/24 00:14:47;;;;;;;17.60;12.80;;;;;;;15.60;73.08;96838.84;108862;1250;101471;-74
2023/05/24 00:17:15;;;;;;;16.40;12.60;;;;;;;15.59;72.88;96840.85;108871;1250;100019;-76
2023/05/24 00:19:44;;;;;;;16.00;13.00;;;;;;;15.59;72.99;96840.04;108464;1251;459902;-74
2023/05/24 00:22:12;;;;;;;17.00;12.90;;;;;;;15.59;73.20;96840.47;108966;1250;96032;-76
2023/05/24 00:24:41;;;;;;;17.40;13.20;;;;;;;15.56;73.11;96839.80;108908;1250;103064;-76
2023/05/24 00:27:10;;;;;;;14.80;12.70;;;;;;;15.58;73.30;96840.69;108902;1252;101207;-74
2023/05/24 00:29:38;;;;;;;19.20;13.00;;;;;;;15.59;73.39;96840.58;108875;1250;98593;-75
2023/05/24 00:32:06;;;;;;;15.90;12.50;;;;;;;15.61;73.34;96838.38;108851;1250;95589;-76
2023/05/24 00:34:34;;;;;;;17.50;12.90;;;;;;;15.65;73.40;96835.31;108933;1250;96039;-74
2023/05/24 00:37:03;;;;;;;16.20;12.40;;;;;;;15.64;73.49;96834.92;108887;1250;103587;-74
2023/05/24 00:39:31;;;;;;;16.70;13.50;;;;;;;15.61;73.49;96834.23;108875;1250;101565;-74
2023/05/24 00:41:59;;;;;;;18.60;12.60;;;;;;;15.59;73.53;96832.64;108869;1250;99990;-74
2023/05/24 00:44:27;;;;;;;15.30;12.80;;;;;;;15.59;73.52;96832.52;108854;1250;96000;-74
2023/05/24 00:46:55;;;;;;;16.20;12.50;;;;;;;15.60;73.79;96831.60;108905;1250;95984;-74
2023/05/24 00:49:23;;;;;;;15.80;12.60;;;;;;;15.62;73.92;96836.73;108888;1250;103657;-74
2023/05/24 00:51:53;;;;;;;16.10;12.30;;;;;;;15.62;74.00;96837.52;108896;1250;101848;-74
2023/05/24 00:54:21;;;;;;;16.10;12.40;;;;;;;15.61;73.97;96835.75;108868;1250;100133;-74
2023/05/24 00:56:49;;;;;;;19.60;13.00;;;;;;;15.62;74.14;96839.20;108856;1250;95545;-75
2023/05/24 00:59:18;;;;;;;15.50;12.80;;;;;;;15.64;74.20;96839.65;108897;1250;96036;-75
2023/05/24 01:01:46;;;;;;;14.70;12.80;;;;;;;15.65;74.29;96837.33;108877;1250;103795;-74
2023/05/24 01:04:16;;;;;;;17.90;13.00;;;;;;;15.65;74.51;96840.70;108898;1250;101375;-76
2023/05/24 01:07:21;;;;;;;17.10;13.40;;;;;;;15.66;74.67;96846.37;108840;1250;100071;-76
2023/05/24 01:10:11;;;;;;;17.70;13.60;;;;;;;15.67;74.55;96845.67;108106;1258;95706;-74
2023/05/24 01:13:13;;;;;;;19.30;14.10;;;;;;;15.67;74.76;96843.11;108263;1259;96149;-74
2023/05/24 01:16:05;;;;;;;17.20;13.30;;;;;;;15.68;75.10;96838.19;108258;1259;103588;-74
2023/05/24 01:18:38;;;;;;;17.80;13.10;;;;;;;15.65;75.07;96840.48;108277;1258;101438;-76
2023/05/24 01:21:16;;;;;;;19.10;14.40;;;;;;;15.64;75.17;96843.69;108200;1259;99730;-74
2023/05/24 01:24:09;;;;;;;17.40;13.30;;;;;;;15.64;75.25;96842.44;108215;1259;95925;-76
2023/05/24 01:26:42;;;;;;;15.80;13.50;;;;;;;15.61;75.38;96841.04;108218;1259;96214;-73
2023/05/24 01:29:12;;;;;;;15.90;13.30;;;;;;;15.60;75.45;96839.59;108086;1259;103809;-76
2023/05/24 01:31:41;;;;;;;15.70;13.20;;;;;;;15.59;75.78;96842.00;108255;1259;101879;-73
2023/05/24 01:34:09;;;;;;;15.80;14.20;;;;;;;15.55;75.72;96839.71;108175;1259;99638;-73
2023/05/24 01:36:37;;;;;;;17.60;13.50;;;;;;;15.53;75.76;96840.39;108223;1259;95744;-75
2023/05/24 01:39:05;;;;;;;16.00;12.70;;;;;;;15.53;75.92;96838.11;108209;1259;96671;-73
2023/05/24 01:41:43;;;;;;;16.20;14.20;;;;;;;15.53;76.11;96840.01;108098;1259;103006;-73
2023/05/24 01:44:27;;;;;;;17.00;13.80;;;;;;;15.53;76.03;96843.81;108235;1259;101237;-76
2023/05/24 01:47:21;;;;;;;18.60;13.90;;;;;;;15.52;76.16;96845.75;108436;1251;99855;-73
2023/05/24 01:49:54;;;;;;;20.90;14.00;;;;;;;15.52;76.34;96845.27;108762;1250;95556;-73
2023/05/24 01:52:27;;;;;;;17.70;13.50;;;;;;;15.53;76.31;96847.66;108903;1250;95639;-74
2023/05/24 01:54:57;;;;;;;14.50;12.30;;;;;;;15.52;76.50;96846.95;108923;1249;103405;-72
2023/05/24 01:57:27;;;;;;;17.80;12.80;;;;;;;15.52;76.36;96847.89;108933;1250;101348;-74
2023/05/24 01:59:57;;;;;;;16.00;13.10;;;;;;;15.52;76.51;96846.42;108830;1250;100179;-73
2023/05/24 02:02:25;;;;;;;19.00;12.90;;;;;;;15.53;76.58;96848.70;108801;1250;95557;-73
2023/05/24 02:04:55;;;;;;;14.90;13.30;;;;;;;15.53;76.47;96850.45;108905;1250;96041;-73
2023/05/24 02:07:23;;;;;;;15.90;12.90;;;;;;;15.55;76.62;96851.36;108919;1250;103691;-76
2023/05/24 02:09:51;;;;;;;14.70;12.50;;;;;;;15.57;76.66;96853.52;108855;1250;101519;-73
2023/05/24 02:12:19;;;;;;;14.00;12.50;;;;;;;15.57;76.71;96850.76;108903;1250;98569;-73
2023/05/24 02:14:49;;;;;;;14.90;13.00;;;;;;;15.53;76.67;96851.11;108847;1250;95568;-74
2023/05/24 02:17:18;;;;;;;15.60;13.60;;;;;;;15.46;76.79;96847.16;108779;1251;96043;-74
2023/05/24 02:19:46;;;;;;;15.50;13.40;;;;;;;15.45;76.89;96849.49;108884;1250;103433;-76
2023/05/24 02:22:14;;;;;;;16.20;13.00;;;;;;;15.45;76.93;96846.29;108929;1250;101706;-73
2023/05/24 02:24:42;;;;;;;16.50;13.10;;;;;;;15.45;76.99;96848.32;108890;1250;100170;-74
2023/05/24 02:27:10;;;;;;;14.30;12.80;;;;;;;15.45;77.12;96847.81;108669;1251;95663;-73
2023/05/24 02:29:40;;;;;;;14.20;12.10;;;;;;;15.44;77.10;96846.35;108756;1251;96515;-75
2023/05/24 02:32:09;;;;;;;14.20;12.20;;;;;;;15.42;77.08;96845.02;108835;1250;103541;-76
2023/05/24 02:34:37;;;;;;;15.50;12.80;;;;;;;15.41;77.19;96843.58;108855;1252;101409;-73
2023/05/24 02:37:05;;;;;;;15.70;13.00;;;;;;;15.39;77.46;96843.29;108877;1250;99949;-73
2023/05/24 02:39:33;;;;;;;16.70;13.50;;;;;;;15.40;77.42;96843.67;108867;1250;95532;-73
2023/05/24 02:42:03;;;;;;;15.20;13.10;;;;;;;15.38;77.32;96844.70;108642;1251;96190;-73
2023/05/24 02:44:31;;;;;;;15.10;12.80;;;;;;;15.36;77.44;96842.09;108935;1250;103746;-73
2023/05/24 02:46:59;;;;;;;14.30;12.60;;;;;;;15.35;77.53;96841.81;108635;1250;100120;-74
2023/05/24 02:49:27;;;;;;;14.90;13.20;;;;;;;15.35;77.46;96841.05;108875;1250;100032;-73
2023/05/24 02:51:55;;;;;;;16.40;13.60;;;;;;;15.35;77.68;96844.15;108889;1250;95552;-75
2023/05/24 02:54:27;;;;;;;15.80;13.60;;;;;;;15.35;77.75;96844.54;108886;1250;96029;-73
2023/05/24 02:56:56;;;;;;;18.30;14.00;;;;;;;15.36;77.84;96846.73;108874;1250;103685;-72
2023/05/24 02:59:25;;;;;;;14.60;13.10;;;;;;;15.37;77.80;96845.82;108898;1250;101597;-73
2023/05/24 03:01:53;;;;;;;15.70;13.30;;;;;;;15.36;77.92;96845.96;108908;1250;99638;-75
2023/05/24 03:04:21;;;;;;;15.60;12.90;;;;;;;15.36;77.84;96846.73;108899;1250;95612;-73
2023/05/24 03:06:49;;;;;;;17.10;13.10;;;;;;;15.37;78.04;96848.86;108936;1250;96095;-73
2023/05/24 03:09:17;;;;;;;15.10;12.70;;;;;;;15.38;77.99;96848.39;108946;1250;103623;-73
2023/05/24 03:11:45;;;;;;;16.90;13.30;;;;;;;15.37;78.07;96851.85;108905;1250;101447;-73
2023/05/24 03:14:16;;;;;;;15.20;13.30;;;;;;;15.35;77.97;96853.78;108894;1250;99602;-73
2023/05/24 03:16:45;;;;;;;19.60;13.40;;;;;;;15.35;78.18;96854.32;108884;1250;95636;-72
2023/05/24 03:19:13;;;;;;;14.60;13.00;;;;;;;15.35;78.36;96853.45;108698;1250;96030;-73
2023/05/24 03:21:41;;;;;;;16.00;13.10;;;;;;;15.35;78.42;96854.11;108870;1250;103542;-75
2023/05/24 03:24:09;;;;;;;18.60;13.60;;;;;;;15.36;78.59;96856.63;108842;1250;101502;-73
2023/05/24 03:26:37;;;;;;;13.90;12.30;;;;;;;15.35;78.52;96852.80;108827;1250;99957;-73
2023/05/24 03:29:05;;;;;;;16.50;13.10;;;;;;;15.34;78.52;96857.48;108893;1250;95652;-75
2023/05/24 03:31:34;;;;;;;14.50;12.50;;;;;;;15.35;78.61;96858.19;108868;1250;96043;-72
2023/05/24 03:34:02;;;;;;;19.40;13.80;;;;;;;15.37;78.51;96861.05;108911;1250;103301;-73
2023/05/24 03:36:30;;;;;;;18.60;14.20;;;;;;;15.39;78.55;96859.70;108892;1250;101368;-74
2023/05/24 03:38:58;;;;;;;16.90;13.40;;;;;;;15.40;78.64;96857.71;108866;1250;99599;-73
2023/05/24 03:41:27;;;;;;;17.10;13.00;;;;;;;15.39;78.86;96859.98;108740;1250;95658;-72
2023/05/24 03:43:55;;;;;;;15.00;13.10;;;;;;;15.39;78.74;96861.45;108891;1250;95986;-73
2023/05/24 03:46:23;;;;;;;16.80;13.50;;;;;;;15.41;78.66;96863.21;108885;1250;103569;-73
2023/05/24 03:48:51;;;;;;;16.30;13.20;;;;;;;15.40;78.73;96863.43;108964;1250;101530;-73
2023/05/24 03:51:19;;;;;;;18.40;13.70;;;;;;;15.38;79.05;96864.36;108847;1250;100022;-73
2023/05/24 03:53:47;;;;;;;17.50;13.80;;;;;;;15.35;79.09;96863.25;108653;1251;95624;-74
2023/05/24 03:56:15;;;;;;;15.00;13.00;;;;;;;15.34;79.36;96864.59;108602;1250;96088;-73
2023/05/24 03:58:43;;;;;;;15.60;13.00;;;;;;;15.36;79.33;96865.65;108918;1250;103086;-73
2023/05/24 04:01:11;;;;;;;15.70;13.00;;;;;;;15.38;79.17;96867.41;108873;1250;101204;-73
2023/05/24 04:03:40;;;;;;;15.20;13.10;;;;;;;15.40;79.22;96868.76;108859;1250;99872;-73
2023/05/24 04:06:08;;;;;;;17.70;13.40;;;;;;;15.42;79.27;96874.55;108846;1250;95929;-74
2023/05/24 04:08:36;;;;;;;14.90;13.00;;;;;;;15.44;79.29;96877.23;108939;1250;96062;-73
2023/05/24 04:11:04;;;;;;;15.20;13.10;;;;;;;15.47;79.34;96878.98;108873;1250;103656;-73
2023/05/24 04:13:32;;;;;;;15.50;12.80;;;;;;;15.49;79.31;96879.40;108916;1250;101116;-72
2023/05/24 04:16:00;;;;;;;17.20;13.60;;;;;;;15.52;79.27;96882.70;108863;1250;109157;-74
2023/05/24 04:18:28;;;;;;;15.50;13.20;;;;;;;15.54;79.38;96885.48;108854;1250;95648;-74
2023/05/24 04:20:56;;;;;;;16.50;13.50;;;;;;;15.57;79.56;96889.01;108912;1250;96047;-72
2023/05/24 04:23:24;;;;;;;15.40;13.20;;;;;;;15.60;79.42;96891.13;108893;1250;103181;-72
2023/05/24 04:25:53;;;;;;;18.30;13.40;;;;;;;15.64;79.59;96894.45;108952;1250;101067;-73
2023/05/24 04:28:22;;;;;;;15.10;13.10;;;;;;;15.67;79.53;96897.61;108880;1250;99911;-73
2023/05/24 04:30:52;;;;;;;13.80;12.20;;;;;;;15.70;79.40;96900.38;108890;1250;95540;-75
2023/05/24 04:33:21;;;;;;;15.70;13.00;;;;;;;15.73;79.30;96902.05;108725;1253;96074;-73
2023/05/24 04:35:49;;;;;;;15.90;14.20;;;;;;;15.75;79.38;96904.73;108928;1250;103629;-73
2023/05/24 04:38:18;;;;;;;14.60;13.10;;;;;;;15.77;79.29;96907.27;108899;1250;101360;-72
2023/05/24 04:40:46;;;;;;;15.10;13.30;;;;;;;15.73;79.22;96909.02;108894;1250;100063;-73
2023/05/24 04:43:14;;;;;;;14.70;13.30;;;;;;;15.71;79.56;96909.59;108839;1250;95908;-73
2023/05/24 04:45:42;;;;;;;14.80;12.90;;;;;;;15.73;79.39;96908.85;108631;1251;97219;-73
2023/05/24 04:48:10;;;;;;;15.00;13.50;;;;;;;15.73;79.32;96910.76;108875;1250;103823;-72
2023/05/24 04:50:38;;;;;;;15.60;13.60;;;;;;;15.72;79.22;96910.69;108800;1250;102559;-72
2023/05/24 04:53:06;;;;;;;14.70;13.20;;;;;;;15.73;79.13;96911.36;108862;1250;100211;-72
2023/05/24 04:55:35;;;;;;;14.70;12.80;;;;;;;15.74;79.36;96914.15;108884;1250;95614;-71
2023/05/24 04:58:03;;;;;;;15.00;13.30;;;;;;;15.75;79.33;96915.63;108904;1250;96022;-74
2023/05/24 05:00:31;;;;;;;16.80;15.00;;;;;;;15.76;79.19;96918.74;108979;1250;103653;-72
2023/05/24 05:02:59;;;;;;;17.90;15.10;;;;;;;15.77;79.12;96921.25;108904;1250;101349;-72
2023/05/24 05:05:27;;;;;;;18.70;16.40;;;;;;;15.76;79.08;96922.61;108876;1250;99400;-71
2023/05/24 05:07:55;;;;;;;20.10;17.00;;;;;;;15.76;79.02;96928.26;108860;1250;95599;-73
2023/05/24 05:10:24;;;;;;;20.50;17.80;;;;;;;15.74;78.98;96932.70;108927;1250;95987;-71
2023/05/24 05:12:53;;;;;;;19.90;17.40;;;;;;;15.70;79.03;96931.83;108935;1250;104590;-72
2023/05/24 05:15:23;;;;;;;20.30;17.60;;;;;;;15.68;79.15;96931.06;108893;1250;101516;-72
2023/05/24 05:17:51;;;;;;;20.30;18.10;;;;;;;15.68;79.23;96935.38;108889;1250;100160;-74
2023/05/24 05:20:20;;;;;;;20.20;18.10;;;;;;;15.67;79.28;96939.81;108925;1250;95536;-72
2023/05/24 05:22:49;;;;;;;22.70;20.30;;;;;;;15.66;79.23;96943.39;108950;1250;96010;-74
2023/05/24 05:25:17;;;;;;;22.90;20.30;;;;;;;15.68;79.29;96948.16;108925;1250;103227;-73
2023/05/24 05:27:45;;;;;;;23.50;20.00;;;;;;;15.70;79.34;96949.96;108907;1250;101365;-72
2023/05/24 05:30:14;;;;;;;26.20;20.90;;;;;;;15.72;79.37;96951.02;108864;1250;99547;-73
2023/05/24 05:32:42;;;;;;;25.60;22.00;;;;;;;15.73;79.39;96954.09;108867;1250;95571;-72
2023/05/24 05:35:10;;;;;;;24.50;21.90;;;;;;;15.74;79.22;96954.80;108619;1251;96142;-74
2023/05/24 05:37:38;;;;;;;28.70;23.00;;;;;;;15.73;79.21;96958.54;108873;1250;103693;-72
2023/05/24 05:40:07;;;;;;;27.80;24.60;;;;;;;15.71;79.19;96959.16;108970;1250;101244;-72
2023/05/24 05:42:36;;;;;;;31.80;25.20;;;;;;;15.69;79.22;96967.54;108933;1250;99968;-72
2023/05/24 05:45:04;;;;;;;32.70;26.00;;;;;;;15.68;79.31;96972.48;108913;1250;95567;-72
2023/05/24 05:47:32;;;;;;;31.50;25.80;;;;;;;15.67;79.40;96974.64;108793;1252;95997;-72
2023/05/24 05:50:00;;;;;;;32.90;26.30;;;;;;;15.66;79.40;96976.91;108767;1250;103501;-73
2023/05/24 05:52:28;;;;;;;26.50;23.50;;;;;;;15.64;79.33;96979.88;108953;1250;100916;-74
2023/05/24 05:54:58;;;;;;;28.90;24.60;;;;;;;15.61;79.21;96978.91;108643;1250;98631;-72
2023/05/24 05:57:26;;;;;;;28.30;24.60;;;;;;;15.60;79.41;96984.89;108938;1250;95526;-75
2023/05/24 05:59:54;;;;;;;29.70;25.60;;;;;;;15.61;79.52;96986.59;108803;1250;96564;-74
2023/05/24 06:02:22;;;;;;;28.80;24.50;;;;;;;15.64;79.52;96988.85;108743;1250;103313;-73
2023/05/24 06:04:51;;;;;;;30.60;24.80;;;;;;;15.65;79.48;96993.72;108850;1252;101023;-75
2023/05/24 06:07:19;;;;;;;28.10;23.60;;;;;;;15.65;79.74;96996.06;108912;1250;99648;-73
2023/05/24 06:09:47;;;;;;;32.70;26.00;;;;;;;15.67;79.82;97002.39;108893;1250;95640;-74
2023/05/24 06:12:15;;;;;;;33.90;26.60;;;;;;;15.68;79.63;97003.44;108794;1252;96105;-74
2023/05/24 06:14:44;;;;;;;29.40;25.40;;;;;;;15.68;79.52;97006.83;108903;1250;103466;-74
2023/05/24 06:17:12;;;;;;;30.90;25.10;;;;;;;15.68;79.64;97009.88;108944;1250;101010;-74
2023/05/24 06:19:40;;;;;;;35.20;28.10;;;;;;;15.69;79.89;97014.17;108878;1250;99566;-73
2023/05/24 06:22:08;;;;;;;29.70;25.90;;;;;;;15.71;79.74;97017.94;108871;1250;95843;-74
2023/05/24 06:24:36;;;;;;;27.90;24.90;;;;;;;15.73;79.75;97018.67;108802;1250;96003;-73
2023/05/24 06:27:05;;;;;;;34.00;26.70;;;;;;;15.74;79.64;97023.09;108883;1249;112192;-74
2023/05/24 06:29:33;;;;;;;30.90;26.10;;;;;;;15.73;79.72;97025.47;108678;1250;101136;-75
2023/05/24 06:32:01;;;;;;;30.20;26.40;;;;;;;15.74;79.61;97025.48;108875;1250;99832;-73
2023/05/24 06:34:29;;;;;;;30.50;26.40;;;;;;;15.75;79.58;97030.39;108939;1250;95846;-75
2023/05/24 06:36:58;;;;;;;30.40;26.80;;;;;;;15.75;79.65;97034.05;108774;1250;96035;-72
2023/05/24 06:39:26;;;;;;;34.00;27.70;;;;;;;15.74;79.69;97030.34;108903;1250;103502;-73
2023/05/24 06:41:54;;;;;;;33.00;28.10;;;;;;;15.73;79.86;97034.08;108947;1250;101666;-74
2023/05/24 06:44:29;;;;;;;35.30;28.30;;;;;;;15.73;79.67;97039.14;108892;1250;99802;-73
2023/05/24 06:46:57;;;;;;;32.70;27.20;;;;;;;15.74;79.84;97042.90;108901;1250;95922;-73
2023/05/24 06:49:26;;;;;;;35.70;29.30;;;;;;;15.76;79.79;97044.63;108924;1250;96020;-73
2023/05/24 06:51:54;;;;;;;33.90;28.00;;;;;;;15.80;79.87;97049.26;108707;1251;103756;-72
2023/05/24 06:54:22;;;;;;;37.80;28.00;;;;;;;15.83;79.93;97049.17;108958;1250;101320;-74
2023/05/24 06:56:50;;;;;;;33.60;27.80;;;;;;;15.85;79.75;97052.58;108651;1251;99445;-72
2023/05/24 06:59:19;;;;;;;35.00;27.90;;;;;;;15.85;79.70;97051.81;108900;1250;95785;-74
2023/05/24 07:01:50;;;;;;;32.00;27.00;;;;;;;15.87;79.66;97054.16;108926;1250;96056;-71
2023/05/24 07:04:18;;;;;;;34.10;27.90;;;;;;;15.89;79.71;97053.48;108973;1250;104038;-74
2023/05/24 07:06:46;;;;;;;36.20;29.00;;;;;;;15.89;79.70;97054.86;108924;1250;101268;-72
2023/05/24 07:09:15;;;;;;;36.20;29.60;;;;;;;15.92;79.69;97059.10;108912;1250;108734;-72
2023/05/24 07:11:43;;;;;;;38.10;29.20;;;;;;;15.93;79.73;97061.34;108902;1250;95536;-72
2023/05/24 07:14:11;;;;;;;36.80;28.70;;;;;;;15.92;79.83;97062.19;108935;1250;95999;-73
2023/05/24 07:16:39;;;;;;;37.40;30.60;;;;;;;15.93;79.73;97060.52;108965;1250;103245;-72
2023/05/24 07:19:07;;;;;;;36.80;30.30;;;;;;;15.97;79.91;97064.48;108918;1250;101346;-72
2023/05/24 07:21:36;;;;;;;40.70;32.30;;;;;;;16.02;79.95;97070.11;108635;1250;100161;-72
2023/05/24 07:24:04;;;;;;;36.50;30.50;;;;;;;16.06;79.95;97075.09;108753;1250;95897;-72
2023/05/24 07:26:32;;;;;;;40.30;31.00;;;;;;;16.06;79.81;97078.59;108794;1252;96043;-72
2023/05/24 07:29:00;;;;;;;39.90;30.80;;;;;;;16.08;79.82;97080.46;108911;1251;103406;-71
2023/05/24 07:31:30;;;;;;;40.40;32.80;;;;;;;16.10;79.77;97082.11;108786;1250;101260;-72
2023/05/24 07:33:58;;;;;;;41.00;32.30;;;;;;;16.12;79.75;97083.98;108778;1250;99882;-72
2023/05/24 07:36:31;;;;;;;42.60;33.70;;;;;;;16.11;79.70;97088.30;108883;1250;95630;-71
2023/05/24 07:39:00;;;;;;;43.70;34.60;;;;;;;16.11;79.59;97090.62;108627;1250;96059;-72
2023/05/24 07:41:28;;;;;;;45.10;35.30;;;;;;;16.11;79.62;97092.73;108772;1250;102789;-73
2023/05/24 07:43:56;;;;;;;45.40;35.90;;;;;;;16.12;79.58;97095.44;108914;1250;101372;-74
2023/05/24 07:46:24;;;;;;;44.20;36.50;;;;;;;16.12;79.57;97098.04;108895;1250;99970;-72
2023/05/24 07:48:53;;;;;;;47.70;36.50;;;;;;;16.13;79.61;97099.42;108904;1254;95553;-72
2023/05/24 07:51:21;;;;;;;49.50;38.20;;;;;;;16.15;79.73;97104.62;108618;1250;96028;-73
2023/05/24 07:53:49;;;;;;;46.80;37.10;;;;;;;16.17;79.64;97109.27;108918;1250;103554;-72
2023/05/24 07:56:18;;;;;;;48.50;37.20;;;;;;;16.21;79.68;97110.50;108823;1250;101258;-73
2023/05/24 07:58:48;;;;;;;46.10;37.80;;;;;;;16.25;79.65;97111.81;108850;1250;99607;-72
2023/05/24 08:01:17;;;;;;;49.40;38.70;;;;;;;16.29;79.64;97112.30;108819;1250;95633;-72
2023/05/24 08:03:46;;;;;;;48.40;38.60;;;;;;;16.31;79.46;97114.60;108877;1250;96014;-72
2023/05/24 08:06:14;;;;;;;45.70;37.80;;;;;;;16.31;79.29;97114.98;108893;1250;103471;-73
2023/05/24 08:08:42;;;;;;;44.70;36.50;;;;;;;16.29;79.16;97116.65;108678;1250;100981;-74
2023/05/24 08:11:10;;;;;;;46.00;37.40;;;;;;;16.25;79.12;97117.48;108882;1250;99909;-72
2023/05/24 08:13:38;;;;;;;46.90;37.80;;;;;;;16.22;79.34;97117.00;108857;1250;95616;-72
2023/05/24 08:16:06;;;;;;;46.30;36.50;;;;;;;16.22;79.29;97119.66;108981;1250;96570;-73
2023/05/24 08:18:35;;;;;;;46.00;37.30;;;;;;;16.19;79.04;97121.70;108423;1249;102806;-72
2023/05/24 08:21:03;;;;;;;46.50;37.60;;;;;;;16.18;79.18;97122.30;108893;1250;101225;-74
2023/05/24 08:23:32;;;;;;;45.70;37.40;;;;;;;16.18;79.20;97124.41;108866;1250;99985;-72
2023/05/24 08:26:00;;;;;;;49.30;37.80;;;;;;;16.17;79.16;97126.77;108861;1250;95700;-73
2023/05/24 08:28:29;;;;;;;49.90;39.00;;;;;;;16.17;79.20;97125.08;108931;1250;96146;-72
2023/05/24 08:30:58;;;;;;;50.90;38.70;;;;;;;16.18;79.24;97126.70;108931;1250;102604;-72
2023/05/24 08:33:27;;;;;;;48.20;37.60;;;;;;;16.19;79.24;97130.36;108949;1250;101312;-74
2023/05/24 08:35:56;;;;;;;47.50;36.80;;;;;;;16.19;79.07;97135.27;108890;1250;99934;-72
2023/05/24 08:38:24;;;;;;;42.20;35.30;;;;;;;16.17;79.08;97134.05;108929;1250;95775;-71
2023/05/24 08:40:52;;;;;;;34.80;26.70;;;;;;;16.09;78.83;97138.13;108922;1250;96150;-74
2023/05/24 08:43:21;;;;;;;27.00;22.40;;;;;;;16.01;78.76;97140.70;108789;1250;103535;-73
2023/05/24 08:45:50;;;;;;;21.80;18.20;;;;;;;15.89;78.66;97143.30;108914;1250;101366;-72
2023/05/24 08:48:19;;;;;;;17.30;15.30;;;;;;;15.74;78.57;97151.53;108901;1250;99983;-72
2023/05/24 08:50:47;;;;;;;15.20;13.30;;;;;;;15.66;78.83;97154.80;108887;1250;95575;-71
2023/05/24 08:53:17;;;;;;;11.70;10.50;;;;;;;15.61;78.77;97158.20;108955;1250;96523;-72
2023/05/24 08:55:45;;;;;;;11.10;10.00;;;;;;;15.48;78.45;97158.14;108943;1250;103512;-72
2023/05/24 08:58:14;;;;;;;10.80;8.60;;;;;;;15.31;78.19;97166.02;108625;1253;101077;-73
2023/05/24 09:00:42;;;;;;;9.60;8.60;;;;;;;15.12;78.21;97167.81;108864;1250;99885;-72
2023/05/24 09:03:12;;;;;;;9.20;8.30;;;;;;;14.97;78.56;97175.11;108931;1250;95589;-74
2023/05/24 09:05:41;;;;;;;10.00;7.90;;;;;;;14.89;79.05;97178.13;108941;1250;96049;-74
2023/05/24 09:08:10;;;;;;;11.30;8.20;;;;;;;14.86;79.17;97182.46;108901;1250;103576;-73
2023/05/24 09:10:39;;;;;;;10.20;7.90;;;;;;;14.79;79.25;97185.39;108926;1250;100277;-72
2023/05/24 09:13:08;;;;;;;10.10;8.60;;;;;;;14.74;79.48;97184.91;108886;1250;100068;-72
2023/05/24 09:15:36;;;;;;;11.30;9.30;;;;;;;14.70;79.69;97193.48;108872;1250;95511;-72
2023/05/24 09:18:05;;;;;;;9.40;8.00;;;;;;;14.63;79.43;97190.25;108882;1251;96005;-72
2023/05/24 09:20:33;;;;;;;11.00;8.50;;;;;;;14.51;79.51;97200.61;108973;1250;102452;-72
2023/05/24 09:23:04;;;;;;;9.50;8.50;;;;;;;14.44;79.62;97205.20;108972;1250;101422;-72
2023/05/24 09:25:32;;;;;;;11.60;10.30;;;;;;;14.42;79.70;97208.23;108898;1250;99936;-74
2023/05/24 09:28:06;;;;;;;8.70;7.80;;;;;;;14.46;79.88;97208.77;108961;1250;95501;-71
2023/05/24 09:30:36;;;;;;;7.80;6.80;;;;;;;14.53;79.99;97211.98;108646;1250;96497;-72
2023/05/24 09:33:07;;;;;;;7.70;6.80;;;;;;;14.58;79.80;97213.57;108958;1249;103464;-71
2023/05/24 09:35:35;;;;;;;9.40;7.10;;;;;;;14.60;79.79;97220.57;108888;1250;101244;-72
2023/05/24 09:38:03;;;;;;;11.10;8.00;;;;;;;14.63;79.66;97223.21;108908;1250;98010;-72
2023/05/24 09:40:32;;;;;;;9.80;8.20;;;;;;;14.64;79.62;97223.03;108923;1250;97438;-72
2023/05/24 09:43:08;;;;;;;9.40;8.40;;;;;;;14.66;79.70;97224.80;108627;1251;96045;-72
2023/05/24 09:45:45;;;;;;;13.70;10.10;;;;;;;14.64;79.54;97228.79;108904;1250;103583;-73
2023/05/24 09:48:15;;;;;;;10.10;9.00;;;;;;;14.61;79.35;97229.38;108678;1250;101266;-72
2023/05/24 09:50:46;;;;;;;12.50;9.70;;;;;;;14.61;79.42;97234.97;108786;1250;99939;-72
2023/05/24 09:53:17;;;;;;;10.20;9.10;;;;;;;14.61;79.33;97237.36;108750;1251;95646;-73
2023/05/24 09:55:45;;;;;;;11.90;9.10;;;;;;;14.61;79.25;97238.12;108913;1250;95956;-73
2023/05/24 09:58:14;;;;;;;12.10;9.10;;;;;;;14.61;79.17;97239.30;108896;1251;103371;-72
2023/05/24 10:00:42;;;;;;;10.50;8.30;;;;;;;14.58;78.98;97247.15;108896;1250;101056;-72
2023/05/24 10:03:13;;;;;;;12.30;8.20;;;;;;;14.56;78.97;97251.16;108882;1254;99979;-72
2023/05/24 10:05:44;;;;;;;9.90;8.50;;;;;;;14.52;79.01;97252.87;108869;1251;95586;-72
2023/05/24 10:08:13;;;;;;;11.70;9.20;;;;;;;14.50;79.07;97255.11;108911;1251;96041;-72
2023/05/24 10:10:42;;;;;;;12.10;9.00;;;;;;;14.50;79.04;97262.17;108917;1254;103203;-72
2023/05/24 10:13:10;;;;;;;13.00;9.40;;;;;;;14.51;78.96;97263.92;108920;1250;101804;-72
2023/05/24 10:15:39;;;;;;;9.20;7.80;;;;;;;14.49;78.99;97270.20;108877;1250;98597;-74
2023/05/24 10:18:07;;;;;;;9.60;7.60;;;;;;;14.44;79.02;97269.92;108873;1250;95582;-73
2023/05/24 10:20:35;;;;;;;10.10;7.40;;;;;;;14.39;78.92;97274.84;108928;1251;96118;-73
2023/05/24 10:23:08;;;;;;;11.70;8.30;;;;;;;14.34;79.10;97278.39;108955;1250;103526;-72
2023/05/24 10:25:41;;;;;;;9.70;6.50;;;;;;;14.31;79.43;97280.70;108876;1250;101087;-73
2023/05/24 10:28:13;;;;;;;9.60;6.70;;;;;;;14.26;79.19;97279.60;108872;1251;99686;-72
2023/05/24 10:31:09;;;;;;;7.90;6.40;;;;;;;14.22;79.22;97277.95;108888;1251;95829;-73
2023/05/24 10:33:38;;;;;;;6.80;6.00;;;;;;;14.20;79.32;97279.75;108654;1251;96050;-73
2023/05/24 10:36:09;;;;;;;8.70;6.80;;;;;;;14.19;79.37;97282.36;108954;1251;103454;-72
2023/05/24 10:38:39;;;;;;;7.20;6.40;;;;;;;14.21;79.36;97286.00;108921;1253;101311;-75
2023/05/24 10:41:08;;;;;;;8.00;6.30;;;;;;;14.21;79.12;97288.63;108861;1251;99769;-72
2023/05/24 10:43:37;;;;;;;10.00;6.30;;;;;;;14.14;79.04;97290.14;108823;1251;95660;-74
2023/05/24 10:46:09;;;;;;;8.00;6.50;;;;;;;14.10;79.01;97290.16;108910;1251;96042;-72
2023/05/24 10:48:41;;;;;;;8.00;6.70;;;;;;;14.10;78.94;97295.14;108916;1250;103725;-71
2023/05/24 10:51:38;;;;;;;9.00;6.60;;;;;;;14.04;79.03;97296.35;108864;1251;100029;-72
2023/05/24 10:54:18;;;;;;;8.10;7.10;;;;;;;14.01;79.18;97303.29;108924;1250;99961;-73
2023/05/24 10:56:49;;;;;;;8.90;7.40;;;;;;;14.02;79.11;97302.48;108913;1250;95560;-75
2023/05/24 10:59:36;;;;;;;8.10;7.20;;;;;;;13.99;79.14;97304.24;108926;1251;96008;-72
2023/05/24 11:02:08;;;;;;;10.40;7.30;;;;;;;13.93;79.10;97308.58;108888;1250;103504;-72
2023/05/24 11:04:48;;;;;;;9.90;7.20;;;;;;;13.87;79.20;97309.92;108843;1251;101358;-73
2023/05/24 11:07:18;;;;;;;9.20;8.30;;;;;;;13.85;79.17;97313.83;108957;1250;100102;-73
2023/05/24 11:09:53;;;;;;;8.90;7.30;;;;;;;13.85;79.24;97316.65;108929;1251;95565;-71
2023/05/24 11:12:21;;;;;;;10.10;7.20;;;;;;;13.84;79.32;97317.05;109016;1251;96037;-72
2023/05/24 11:14:51;;;;;;;8.80;6.40;;;;;;;13.80;79.31;97317.05;108841;1251;103446;-72
2023/05/24 11:17:23;;;;;;;8.50;6.60;;;;;;;13.75;79.23;97319.23;108974;1251;101363;-73
2023/05/24 11:19:54;;;;;;;10.00;6.70;;;;;;;13.71;79.40;97317.54;108918;1251;99922;-72
2023/05/24 11:22:25;;;;;;;8.80;6.80;;;;;;;13.70;79.41;97320.94;108943;1251;95610;-73